sensor_id;sensor_type;location;lat;lon;timestamp;P1;durP1;ratioP1;P2;durP2;ratioP2
39308;SDS011;26019;47.510;19.122;2023-10-08T00:08:45;7.03;;;2.92;;
39308;SDS011;26019;47.510;19.122;2023-10-08T00:18:46;6.30;;;2.63;;
39308;SDS011;26019;47.510;19.122;2023-10-08T00:28:54;7.68;;;3.95;;
39308;SDS011;26019;47.510;19.122;2023-10-08T00:38:57;7.28;;;2.67;;
39308;SDS011;26019;47.510;19.122;2023-10-08T00:49:02;5.75;;;2.28;;
39308;SDS011;26019;47.510;19.122;2023-10-08T00:59:21;6.63;;;3.22;;
39308;SDS011;26019;47.510;19.122;2023-10-08T01:09:22;8.57;;;3.40;;
39308;SDS011;26019;47.510;19.122;2023-10-08T01:19:33;7.07;;;2.80;;
39308;SDS011;26019;47.510;19.122;2023-10-08T01:29:40;6.50;;;2.33;;
39308;SDS011;26019;47.510;19.122;2023-10-08T01:39:45;8.15;;;2.40;;
39308;SDS011;26019;47.510;19.122;2023-10-08T01:49:49;7.20;;;2.90;;
39308;SDS011;26019;47.510;19.122;2023-10-08T02:09:53;9.32;;;2.75;;
39308;SDS011;26019;47.510;19.122;2023-10-08T02:19:55;7.03;;;2.95;;
39308;SDS011;26019;47.510;19.122;2023-10-08T02:29:57;5.97;;;2.30;;
39308;SDS011;26019;47.510;19.122;2023-10-08T02:39:59;5.75;;;2.63;;
39308;SDS011;26019;47.510;19.122;2023-10-08T02:50:00;12.48;;;4.05;;
39308;SDS011;26019;47.510;19.122;2023-10-08T03:00:09;7.75;;;2.42;;
39308;SDS011;26019;47.510;19.122;2023-10-08T03:10:15;8.80;;;2.92;;
39308;SDS011;26019;47.510;19.122;2023-10-08T03:20:20;8.75;;;2.90;;
39308;SDS011;26019;47.510;19.122;2023-10-08T03:30:31;7.47;;;3.00;;
39308;SDS011;26019;47.510;19.122;2023-10-08T03:40:38;5.20;;;2.53;;
39308;SDS011;26019;47.510;19.122;2023-10-08T03:50:48;9.20;;;3.17;;
39308;SDS011;26019;47.510;19.122;2023-10-08T04:00:58;7.72;;;2.80;;
39308;SDS011;26019;47.510;19.122;2023-10-08T04:11:17;5.55;;;2.50;;
39308;SDS011;26019;47.510;19.122;2023-10-08T04:21:33;7.78;;;2.92;;
39308;SDS011;26019;47.510;19.122;2023-10-08T04:31:35;9.93;;;3.20;;
39308;SDS011;26019;47.510;19.122;2023-10-08T04:41:40;7.50;;;2.70;;
39308;SDS011;26019;47.510;19.122;2023-10-08T04:51:45;11.73;;;3.30;;
39308;SDS011;26019;47.510;19.122;2023-10-08T05:11:50;7.70;;;3.55;;
39308;SDS011;26019;47.510;19.122;2023-10-08T05:21:54;14.38;;;2.13;;
39308;SDS011;26019;47.510;19.122;2023-10-08T05:32:07;14.18;;;3.45;;
39308;SDS011;26019;47.510;19.122;2023-10-08T05:42:27;11.02;;;2.22;;
39308;SDS011;26019;47.510;19.122;2023-10-08T05:52:37;8.20;;;2.65;;
39308;SDS011;26019;47.510;19.122;2023-10-08T06:02:51;8.98;;;2.90;;
39308;SDS011;26019;47.510;19.122;2023-10-08T06:13:11;8.90;;;2.65;;
39308;SDS011;26019;47.510;19.122;2023-10-08T06:33:37;12.00;;;2.63;;
39308;SDS011;26019;47.510;19.122;2023-10-08T06:43:46;10.95;;;3.58;;
39308;SDS011;26019;47.510;19.122;2023-10-08T06:54:08;5.47;;;2.67;;
39308;SDS011;26019;47.510;19.122;2023-10-08T07:04:12;8.55;;;2.67;;
39308;SDS011;26019;47.510;19.122;2023-10-08T07:14:15;9.48;;;3.53;;
39308;SDS011;26019;47.510;19.122;2023-10-08T07:24:17;5.20;;;2.30;;
39308;SDS011;26019;47.510;19.122;2023-10-08T07:34:23;13.10;;;2.65;;
39308;SDS011;26019;47.510;19.122;2023-10-08T07:44:25;4.25;;;2.35;;
39308;SDS011;26019;47.510;19.122;2023-10-08T07:54:34;8.23;;;2.35;;
39308;SDS011;26019;47.510;19.122;2023-10-08T08:04:36;9.85;;;3.05;;
39308;SDS011;26019;47.510;19.122;2023-10-08T08:14:41;6.95;;;3.10;;
39308;SDS011;26019;47.510;19.122;2023-10-08T08:24:43;11.05;;;3.33;;
39308;SDS011;26019;47.510;19.122;2023-10-08T08:34:46;10.00;;;2.60;;
39308;SDS011;26019;47.510;19.122;2023-10-08T08:44:52;7.07;;;3.10;;
39308;SDS011;26019;47.510;19.122;2023-10-08T08:54:58;12.70;;;2.30;;
39308;SDS011;26019;47.510;19.122;2023-10-08T09:05:04;9.23;;;3.10;;
39308;SDS011;26019;47.510;19.122;2023-10-08T09:15:27;20.38;;;3.13;;
39308;SDS011;26019;47.510;19.122;2023-10-08T09:25:29;19.65;;;2.97;;
39308;SDS011;26019;47.510;19.122;2023-10-08T09:35:34;17.27;;;2.75;;
39308;SDS011;26019;47.510;19.122;2023-10-08T09:45:40;8.27;;;2.63;;
39308;SDS011;26019;47.510;19.122;2023-10-08T09:55:46;13.00;;;2.33;;
39308;SDS011;26019;47.510;19.122;2023-10-08T10:05:51;7.45;;;3.22;;
39308;SDS011;26019;47.510;19.122;2023-10-08T10:15:53;9.75;;;2.42;;
39308;SDS011;26019;47.510;19.122;2023-10-08T10:25:56;4.70;;;1.80;;
39308;SDS011;26019;47.510;19.122;2023-10-08T10:36:00;4.90;;;1.92;;
39308;SDS011;26019;47.510;19.122;2023-10-08T10:46:03;11.10;;;1.73;;
39308;SDS011;26019;47.510;19.122;2023-10-08T10:56:25;2.70;;;1.20;;
39308;SDS011;26019;47.510;19.122;2023-10-08T11:06:32;0.40;;;0.40;;
39308;SDS011;26019;47.510;19.122;2023-10-08T11:16:39;1.65;;;0.40;;
39308;SDS011;26019;47.510;19.122;2023-10-08T11:26:41;3.55;;;0.60;;
39308;SDS011;26019;47.510;19.122;2023-10-08T11:37:03;1.65;;;0.30;;
39308;SDS011;26019;47.510;19.122;2023-10-08T11:47:09;3.67;;;0.32;;
39308;SDS011;26019;47.510;19.122;2023-10-08T11:57:15;2.13;;;0.13;;
39308;SDS011;26019;47.510;19.122;2023-10-08T12:07:24;2.63;;;0.30;;
39308;SDS011;26019;47.510;19.122;2023-10-08T12:17:29;0.17;;;0.15;;
39308;SDS011;26019;47.510;19.122;2023-10-08T12:27:43;1.92;;;0.40;;
39308;SDS011;26019;47.510;19.122;2023-10-08T12:37:45;0.20;;;0.20;;
39308;SDS011;26019;47.510;19.122;2023-10-08T12:47:47;2.53;;;0.45;;
39308;SDS011;26019;47.510;19.122;2023-10-08T12:57:53;1.70;;;0.30;;
39308;SDS011;26019;47.510;19.122;2023-10-08T13:08:09;4.22;;;0.70;;
39308;SDS011;26019;47.510;19.122;2023-10-08T13:18:15;8.57;;;0.32;;
39308;SDS011;26019;47.510;19.122;2023-10-08T13:28:17;4.80;;;0.45;;
39308;SDS011;26019;47.510;19.122;2023-10-08T13:38:26;3.15;;;0.40;;
39308;SDS011;26019;47.510;19.122;2023-10-08T13:48:31;0.98;;;0.40;;
39308;SDS011;26019;47.510;19.122;2023-10-08T13:58:36;2.35;;;0.30;;
39308;SDS011;26019;47.510;19.122;2023-10-08T14:08:47;3.03;;;0.75;;
39308;SDS011;26019;47.510;19.122;2023-10-08T14:18:53;2.42;;;0.40;;
39308;SDS011;26019;47.510;19.122;2023-10-08T14:28:56;1.75;;;1.10;;
39308;SDS011;26019;47.510;19.122;2023-10-08T14:39:00;4.78;;;1.50;;
39308;SDS011;26019;47.510;19.122;2023-10-08T14:49:21;1.58;;;1.00;;
39308;SDS011;26019;47.510;19.122;2023-10-08T14:59:24;2.85;;;0.95;;
39308;SDS011;26019;47.510;19.122;2023-10-08T15:09:30;3.08;;;1.02;;
39308;SDS011;26019;47.510;19.122;2023-10-08T15:19:35;1.67;;;1.10;;
39308;SDS011;26019;47.510;19.122;2023-10-08T15:29:39;2.78;;;1.20;;
39308;SDS011;26019;47.510;19.122;2023-10-08T15:39:42;4.28;;;1.08;;
39308;SDS011;26019;47.510;19.122;2023-10-08T15:49:48;5.35;;;1.85;;
39308;SDS011;26019;47.510;19.122;2023-10-08T15:59:52;3.53;;;1.60;;
39308;SDS011;26019;47.510;19.122;2023-10-08T16:09:56;6.57;;;1.35;;
39308;SDS011;26019;47.510;19.122;2023-10-08T16:19:58;2.38;;;1.40;;
39308;SDS011;26019;47.510;19.122;2023-10-08T16:30:10;1.70;;;1.40;;
39308;SDS011;26019;47.510;19.122;2023-10-08T16:40:13;6.85;;;2.05;;
39308;SDS011;26019;47.510;19.122;2023-10-08T17:00:22;5.30;;;1.83;;
39308;SDS011;26019;47.510;19.122;2023-10-08T17:10:29;5.10;;;2.13;;
39308;SDS011;26019;47.510;19.122;2023-10-08T17:20:32;4.25;;;2.08;;
39308;SDS011;26019;47.510;19.122;2023-10-08T17:30:38;3.42;;;1.95;;
39308;SDS011;26019;47.510;19.122;2023-10-08T17:40:43;10.30;;;1.90;;
39308;SDS011;26019;47.510;19.122;2023-10-08T17:50:50;6.03;;;1.88;;
39308;SDS011;26019;47.510;19.122;2023-10-08T18:00:55;3.80;;;1.83;;
39308;SDS011;26019;47.510;19.122;2023-10-08T18:21:07;4.10;;;1.85;;
39308;SDS011;26019;47.510;19.122;2023-10-08T18:31:29;3.20;;;1.70;;
39308;SDS011;26019;47.510;19.122;2023-10-08T18:41:33;4.63;;;2.17;;
39308;SDS011;26019;47.510;19.122;2023-10-08T18:51:37;3.67;;;2.45;;
39308;SDS011;26019;47.510;19.122;2023-10-08T19:01:46;3.70;;;1.70;;
39308;SDS011;26019;47.510;19.122;2023-10-08T19:21:57;5.38;;;1.90;;
39308;SDS011;26019;47.510;19.122;2023-10-08T19:32:00;5.73;;;2.17;;
39308;SDS011;26019;47.510;19.122;2023-10-08T19:42:05;4.63;;;1.90;;
39308;SDS011;26019;47.510;19.122;2023-10-08T19:52:08;3.63;;;1.73;;
39308;SDS011;26019;47.510;19.122;2023-10-08T20:02:13;2.67;;;1.60;;
39308;SDS011;26019;47.510;19.122;2023-10-08T20:12:19;3.47;;;2.00;;
39308;SDS011;26019;47.510;19.122;2023-10-08T20:22:24;2.78;;;1.38;;
39308;SDS011;26019;47.510;19.122;2023-10-08T20:32:27;2.70;;;1.77;;
39308;SDS011;26019;47.510;19.122;2023-10-08T20:42:30;4.18;;;1.52;;
39308;SDS011;26019;47.510;19.122;2023-10-08T20:52:32;3.25;;;1.80;;
39308;SDS011;26019;47.510;19.122;2023-10-08T21:02:35;5.63;;;1.50;;
39308;SDS011;26019;47.510;19.122;2023-10-08T21:22:46;2.22;;;1.20;;
39308;SDS011;26019;47.510;19.122;2023-10-08T21:32:49;3.22;;;1.88;;
39308;SDS011;26019;47.510;19.122;2023-10-08T21:42:52;3.80;;;1.35;;
39308;SDS011;26019;47.510;19.122;2023-10-08T21:52:54;2.33;;;1.43;;
39308;SDS011;26019;47.510;19.122;2023-10-08T22:02:56;2.75;;;1.45;;
39308;SDS011;26019;47.510;19.122;2023-10-08T22:13:02;2.83;;;1.58;;
39308;SDS011;26019;47.510;19.122;2023-10-08T22:23:11;3.65;;;1.40;;
39308;SDS011;26019;47.510;19.122;2023-10-08T22:33:22;2.15;;;1.52;;
39308;SDS011;26019;47.510;19.122;2023-10-08T22:43:42;2.20;;;1.10;;
39308;SDS011;26019;47.510;19.122;2023-10-08T22:53:46;2.95;;;1.40;;
39308;SDS011;26019;47.510;19.122;2023-10-08T23:03:49;1.92;;;1.23;;
39308;SDS011;26019;47.510;19.122;2023-10-08T23:13:55;3.47;;;1.60;;
39308;SDS011;26019;47.510;19.122;2023-10-08T23:23:59;2.67;;;1.27;;
39308;SDS011;26019;47.510;19.122;2023-10-08T23:34:04;3.70;;;1.15;;
39308;SDS011;26019;47.510;19.122;2023-10-08T23:44:13;1.52;;;0.90;;
